sensor_id;sensor_type;location;lat;lon;timestamp;temperature;humidity
7704;DHT22;3894;49.700;10.770;2024-03-22T00:01:50;6.70;99.90
7704;DHT22;3894;49.700;10.770;2024-03-22T00:04:16;6.70;99.90
7704;DHT22;3894;49.700;10.770;2024-03-22T00:06:43;6.70;99.90
7704;DHT22;3894;49.700;10.770;2024-03-22T00:09:09;6.70;99.90
7704;DHT22;3894;49.700;10.770;2024-03-22T00:11:34;6.60;99.90
7704;DHT22;3894;49.700;10.770;2024-03-22T00:14:01;6.60;99.90
7704;DHT22;3894;49.700;10.770;2024-03-22T00:16:26;6.60;99.90
7704;DHT22;3894;49.700;10.770;2024-03-22T00:18:52;6.60;99.90
7704;DHT22;3894;49.700;10.770;2024-03-22T00:21:17;6.70;99.90
7704;DHT22;3894;49.700;10.770;2024-03-22T00:23:44;6.70;99.90
7704;DHT22;3894;49.700;10.770;2024-03-22T00:26:10;6.60;99.90
7704;DHT22;3894;49.700;10.770;2024-03-22T00:28:35;6.40;99.90
7704;DHT22;3894;49.700;10.770;2024-03-22T00:31:01;6.20;99.90
7704;DHT22;3894;49.700;10.770;2024-03-22T00:33:26;6.10;99.90
7704;DHT22;3894;49.700;10.770;2024-03-22T00:35:52;6.00;99.90
7704;DHT22;3894;49.700;10.770;2024-03-22T00:38:17;5.90;99.90
7704;DHT22;3894;49.700;10.770;2024-03-22T00:40:43;5.80;99.90
7704;DHT22;3894;49.700;10.770;2024-03-22T00:43:09;5.90;99.90
7704;DHT22;3894;49.700;10.770;2024-03-22T00:45:34;6.00;99.90
7704;DHT22;3894;49.700;10.770;2024-03-22T00:48:00;6.00;99.90
7704;DHT22;3894;49.700;10.770;2024-03-22T00:50:25;6.10;99.90
7704;DHT22;3894;49.700;10.770;2024-03-22T00:52:51;6.10;99.90
7704;DHT22;3894;49.700;10.770;2024-03-22T00:55:18;6.20;99.90
7704;DHT22;3894;49.700;10.770;2024-03-22T00:57:45;6.20;99.90
7704;DHT22;3894;49.700;10.770;2024-03-22T01:00:12;6.20;99.90
7704;DHT22;3894;49.700;10.770;2024-03-22T01:02:38;6.20;99.90
7704;DHT22;3894;49.700;10.770;2024-03-22T01:05:04;6.20;99.90
7704;DHT22;3894;49.700;10.770;2024-03-22T01:07:29;6.20;99.90
7704;DHT22;3894;49.700;10.770;2024-03-22T01:09:56;6.10;99.90
7704;DHT22;3894;49.700;10.770;2024-03-22T01:12:22;6.10;99.90
7704;DHT22;3894;49.700;10.770;2024-03-22T01:14:47;6.10;99.90
7704;DHT22;3894;49.700;10.770;2024-03-22T01:17:13;6.10;99.90
7704;DHT22;3894;49.700;10.770;2024-03-22T01:19:38;6.20;99.90
7704;DHT22;3894;49.700;10.770;2024-03-22T01:22:04;6.10;99.90
7704;DHT22;3894;49.700;10.770;2024-03-22T01:24:29;6.10;99.90
7704;DHT22;3894;49.700;10.770;2024-03-22T01:26:55;6.10;99.90
7704;DHT22;3894;49.700;10.770;2024-03-22T01:29:20;5.90;99.90
7704;DHT22;3894;49.700;10.770;2024-03-22T01:31:47;5.70;99.90
7704;DHT22;3894;49.700;10.770;2024-03-22T01:34:14;5.70;99.90
7704;DHT22;3894;49.700;10.770;2024-03-22T01:36:41;5.70;99.90
7704;DHT22;3894;49.700;10.770;2024-03-22T01:39:07;5.80;99.90
7704;DHT22;3894;49.700;10.770;2024-03-22T01:41:32;5.80;99.90
7704;DHT22;3894;49.700;10.770;2024-03-22T01:43:58;5.80;99.90
7704;DHT22;3894;49.700;10.770;2024-03-22T01:46:24;5.80;99.90
7704;DHT22;3894;49.700;10.770;2024-03-22T01:48:50;5.80;99.90
7704;DHT22;3894;49.700;10.770;2024-03-22T01:51:16;5.80;99.90
7704;DHT22;3894;49.700;10.770;2024-03-22T01:53:42;5.70;99.90
7704;DHT22;3894;49.700;10.770;2024-03-22T01:56:08;5.70;99.90
7704;DHT22;3894;49.700;10.770;2024-03-22T01:58:34;5.70;99.90
7704;DHT22;3894;49.700;10.770;2024-03-22T02:00:59;5.70;99.90
7704;DHT22;3894;49.700;10.770;2024-03-22T02:03:25;5.70;99.90
7704;DHT22;3894;49.700;10.770;2024-03-22T02:05:51;5.70;99.90
7704;DHT22;3894;49.700;10.770;2024-03-22T02:08:17;5.70;99.90
7704;DHT22;3894;49.700;10.770;2024-03-22T02:10:43;5.60;99.90
7704;DHT22;3894;49.700;10.770;2024-03-22T02:13:08;5.40;99.90
7704;DHT22;3894;49.700;10.770;2024-03-22T02:15:34;5.40;99.90
7704;DHT22;3894;49.700;10.770;2024-03-22T02:17:59;5.40;99.90
7704;DHT22;3894;49.700;10.770;2024-03-22T02:20:25;5.40;99.90
7704;DHT22;3894;49.700;10.770;2024-03-22T02:22:51;5.40;99.90
7704;DHT22;3894;49.700;10.770;2024-03-22T02:25:16;5.50;99.90
7704;DHT22;3894;49.700;10.770;2024-03-22T02:27:42;5.50;99.90
7704;DHT22;3894;49.700;10.770;2024-03-22T02:30:08;5.60;99.90
7704;DHT22;3894;49.700;10.770;2024-03-22T02:32:34;5.60;99.90
7704;DHT22;3894;49.700;10.770;2024-03-22T02:34:59;5.50;99.90
7704;DHT22;3894;49.700;10.770;2024-03-22T02:37:25;5.50;99.90
7704;DHT22;3894;49.700;10.770;2024-03-22T02:39:50;5.50;99.90
7704;DHT22;3894;49.700;10.770;2024-03-22T02:42:16;5.40;99.90
7704;DHT22;3894;49.700;10.770;2024-03-22T02:44:41;5.30;99.90
7704;DHT22;3894;49.700;10.770;2024-03-22T02:47:10;5.40;99.90
7704;DHT22;3894;49.700;10.770;2024-03-22T02:49:37;5.30;99.90
7704;DHT22;3894;49.700;10.770;2024-03-22T02:52:02;5.30;99.90
7704;DHT22;3894;49.700;10.770;2024-03-22T02:54:29;5.20;99.90
7704;DHT22;3894;49.700;10.770;2024-03-22T02:56:55;5.30;99.90
7704;DHT22;3894;49.700;10.770;2024-03-22T02:59:20;5.20;99.90
7704;DHT22;3894;49.700;10.770;2024-03-22T03:01:46;5.20;99.90
7704;DHT22;3894;49.700;10.770;2024-03-22T03:04:11;5.20;99.90
7704;DHT22;3894;49.700;10.770;2024-03-22T03:06:36;5.20;99.90
7704;DHT22;3894;49.700;10.770;2024-03-22T03:09:02;5.10;99.90
7704;DHT22;3894;49.700;10.770;2024-03-22T03:11:30;5.20;99.90
7704;DHT22;3894;49.700;10.770;2024-03-22T03:13:56;5.20;99.90
7704;DHT22;3894;49.700;10.770;2024-03-22T03:16:22;5.20;99.90
7704;DHT22;3894;49.700;10.770;2024-03-22T03:18:47;5.20;99.90
7704;DHT22;3894;49.700;10.770;2024-03-22T03:21:12;5.10;99.90
7704;DHT22;3894;49.700;10.770;2024-03-22T03:23:38;5.10;99.90
7704;DHT22;3894;49.700;10.770;2024-03-22T03:26:04;5.00;99.90
7704;DHT22;3894;49.700;10.770;2024-03-22T03:28:29;5.00;99.90
7704;DHT22;3894;49.700;10.770;2024-03-22T03:30:55;5.00;99.90
7704;DHT22;3894;49.700;10.770;2024-03-22T03:33:20;5.00;99.90
7704;DHT22;3894;49.700;10.770;2024-03-22T03:35:46;5.00;99.90
7704;DHT22;3894;49.700;10.770;2024-03-22T03:38:12;4.90;99.90
7704;DHT22;3894;49.700;10.770;2024-03-22T03:40:38;4.90;99.90
7704;DHT22;3894;49.700;10.770;2024-03-22T03:43:03;4.80;99.90
7704;DHT22;3894;49.700;10.770;2024-03-22T03:45:29;4.70;99.90
7704;DHT22;3894;49.700;10.770;2024-03-22T03:47:54;4.80;99.90
7704;DHT22;3894;49.700;10.770;2024-03-22T03:50:20;4.80;99.90
7704;DHT22;3894;49.700;10.770;2024-03-22T03:52:46;4.80;99.90
7704;DHT22;3894;49.700;10.770;2024-03-22T03:55:11;4.80;99.90
7704;DHT22;3894;49.700;10.770;2024-03-22T03:57:37;4.80;99.90
7704;DHT22;3894;49.700;10.770;2024-03-22T04:00:03;4.80;99.90
7704;DHT22;3894;49.700;10.770;2024-03-22T04:02:29;4.80;99.90
7704;DHT22;3894;49.700;10.770;2024-03-22T04:04:54;4.70;99.90
7704;DHT22;3894;49.700;10.770;2024-03-22T04:07:20;4.70;99.90
7704;DHT22;3894;49.700;10.770;2024-03-22T04:09:46;4.60;99.90
7704;DHT22;3894;49.700;10.770;2024-03-22T04:12:12;4.50;99.90
7704;DHT22;3894;49.700;10.770;2024-03-22T04:14:38;4.40;99.90
7704;DHT22;3894;49.700;10.770;2024-03-22T04:17:03;4.40;99.90
7704;DHT22;3894;49.700;10.770;2024-03-22T04:19:29;4.30;99.90
7704;DHT22;3894;49.700;10.770;2024-03-22T04:21:54;4.40;99.90
7704;DHT22;3894;49.700;10.770;2024-03-22T04:24:20;4.40;99.90
7704;DHT22;3894;49.700;10.770;2024-03-22T04:26:45;4.40;99.90
7704;DHT22;3894;49.700;10.770;2024-03-22T04:29:11;4.40;99.90
7704;DHT22;3894;49.700;10.770;2024-03-22T04:31:36;4.40;99.90
7704;DHT22;3894;49.700;10.770;2024-03-22T04:34:02;4.50;99.90
7704;DHT22;3894;49.700;10.770;2024-03-22T04:36:28;4.50;99.90
7704;DHT22;3894;49.700;10.770;2024-03-22T04:38:53;4.50;99.90
7704;DHT22;3894;49.700;10.770;2024-03-22T04:41:19;4.50;99.90
7704;DHT22;3894;49.700;10.770;2024-03-22T04:43:44;4.50;99.90
7704;DHT22;3894;49.700;10.770;2024-03-22T04:46:10;4.50;99.90
7704;DHT22;3894;49.700;10.770;2024-03-22T04:48:35;4.40;99.90
7704;DHT22;3894;49.700;10.770;2024-03-22T04:51:01;4.40;99.90
7704;DHT22;3894;49.700;10.770;2024-03-22T04:53:26;4.30;99.90
7704;DHT22;3894;49.700;10.770;2024-03-22T04:55:52;4.30;99.90
7704;DHT22;3894;49.700;10.770;2024-03-22T04:58:19;4.30;99.90
7704;DHT22;3894;49.700;10.770;2024-03-22T05:00:46;4.30;99.90
7704;DHT22;3894;49.700;10.770;2024-03-22T05:03:12;4.30;99.90
7704;DHT22;3894;49.700;10.770;2024-03-22T05:05:38;4.40;99.90
7704;DHT22;3894;49.700;10.770;2024-03-22T05:08:05;4.40;99.90
7704;DHT22;3894;49.700;10.770;2024-03-22T05:10:31;4.30;99.90
7704;DHT22;3894;49.700;10.770;2024-03-22T05:12:57;4.30;99.90
7704;DHT22;3894;49.700;10.770;2024-03-22T05:15:23;4.30;99.90
7704;DHT22;3894;49.700;10.770;2024-03-22T05:17:51;4.30;99.90
7704;DHT22;3894;49.700;10.770;2024-03-22T05:20:17;4.20;99.90
7704;DHT22;3894;49.700;10.770;2024-03-22T05:22:42;4.20;99.90
7704;DHT22;3894;49.700;10.770;2024-03-22T05:25:08;4.20;99.90
7704;DHT22;3894;49.700;10.770;2024-03-22T05:27:35;4.10;99.90
7704;DHT22;3894;49.700;10.770;2024-03-22T05:30:00;4.10;99.90
7704;DHT22;3894;49.700;10.770;2024-03-22T05:32:26;4.10;99.90
7704;DHT22;3894;49.700;10.770;2024-03-22T05:34:53;4.10;99.90
7704;DHT22;3894;49.700;10.770;2024-03-22T05:37:18;4.10;99.90
7704;DHT22;3894;49.700;10.770;2024-03-22T05:39:44;4.20;99.90
7704;DHT22;3894;49.700;10.770;2024-03-22T05:42:09;4.20;99.90
7704;DHT22;3894;49.700;10.770;2024-03-22T05:44:35;4.20;99.90
7704;DHT22;3894;49.700;10.770;2024-03-22T05:47:01;4.20;99.90
7704;DHT22;3894;49.700;10.770;2024-03-22T05:49:26;4.20;99.90
7704;DHT22;3894;49.700;10.770;2024-03-22T05:51:52;4.20;99.90
7704;DHT22;3894;49.700;10.770;2024-03-22T05:54:18;4.20;99.90
7704;DHT22;3894;49.700;10.770;2024-03-22T05:56:43;4.20;99.90
7704;DHT22;3894;49.700;10.770;2024-03-22T05:59:09;4.20;99.90
7704;DHT22;3894;49.700;10.770;2024-03-22T06:01:35;4.20;99.90
7704;DHT22;3894;49.700;10.770;2024-03-22T06:04:01;4.30;99.90
7704;DHT22;3894;49.700;10.770;2024-03-22T06:06:26;4.40;99.90
7704;DHT22;3894;49.700;10.770;2024-03-22T06:08:52;4.40;99.90
7704;DHT22;3894;49.700;10.770;2024-03-22T06:11:19;4.50;99.90
7704;DHT22;3894;49.700;10.770;2024-03-22T06:13:45;4.50;99.90
7704;DHT22;3894;49.700;10.770;2024-03-22T06:16:10;4.50;99.90
7704;DHT22;3894;49.700;10.770;2024-03-22T06:18:36;4.60;99.90
7704;DHT22;3894;49.700;10.770;2024-03-22T06:21:02;4.70;99.90
7704;DHT22;3894;49.700;10.770;2024-03-22T06:23:29;4.60;99.90
7704;DHT22;3894;49.700;10.770;2024-03-22T06:25:55;4.50;99.90
7704;DHT22;3894;49.700;10.770;2024-03-22T06:28:22;4.60;99.90
7704;DHT22;3894;49.700;10.770;2024-03-22T06:30:47;4.70;99.90
7704;DHT22;3894;49.700;10.770;2024-03-22T06:33:13;4.80;99.90
7704;DHT22;3894;49.700;10.770;2024-03-22T06:35:40;4.80;99.90
7704;DHT22;3894;49.700;10.770;2024-03-22T06:38:06;4.90;99.90
7704;DHT22;3894;49.700;10.770;2024-03-22T06:40:32;4.90;99.90
7704;DHT22;3894;49.700;10.770;2024-03-22T06:42:57;5.00;99.90
7704;DHT22;3894;49.700;10.770;2024-03-22T06:45:23;5.10;99.90
7704;DHT22;3894;49.700;10.770;2024-03-22T06:47:49;5.10;99.90
7704;DHT22;3894;49.700;10.770;2024-03-22T06:50:14;5.10;99.90
7704;DHT22;3894;49.700;10.770;2024-03-22T06:52:40;5.20;99.90
7704;DHT22;3894;49.700;10.770;2024-03-22T06:55:06;5.20;99.90
7704;DHT22;3894;49.700;10.770;2024-03-22T06:57:32;5.20;99.90
7704;DHT22;3894;49.700;10.770;2024-03-22T06:59:59;5.20;99.90
7704;DHT22;3894;49.700;10.770;2024-03-22T07:02:25;5.20;99.90
7704;DHT22;3894;49.700;10.770;2024-03-22T07:04:50;5.20;99.90
7704;DHT22;3894;49.700;10.770;2024-03-22T07:07:17;5.20;99.90
7704;DHT22;3894;49.700;10.770;2024-03-22T07:09:43;5.10;99.90
7704;DHT22;3894;49.700;10.770;2024-03-22T07:12:08;5.20;99.90
7704;DHT22;3894;49.700;10.770;2024-03-22T07:14:34;5.30;99.90
7704;DHT22;3894;49.700;10.770;2024-03-22T07:16:59;5.30;99.90
7704;DHT22;3894;49.700;10.770;2024-03-22T07:19:25;5.40;99.90
7704;DHT22;3894;49.700;10.770;2024-03-22T07:21:50;5.50;99.90
7704;DHT22;3894;49.700;10.770;2024-03-22T07:24:16;5.60;99.90
7704;DHT22;3894;49.700;10.770;2024-03-22T07:26:43;5.60;99.90
7704;DHT22;3894;49.700;10.770;2024-03-22T07:29:08;5.60;99.90
7704;DHT22;3894;49.700;10.770;2024-03-22T07:31:34;5.70;99.90
7704;DHT22;3894;49.700;10.770;2024-03-22T07:33:59;5.80;99.90
7704;DHT22;3894;49.700;10.770;2024-03-22T07:36:25;5.90;99.90
7704;DHT22;3894;49.700;10.770;2024-03-22T07:38:52;5.90;99.90
7704;DHT22;3894;49.700;10.770;2024-03-22T07:41:17;5.90;99.90
7704;DHT22;3894;49.700;10.770;2024-03-22T07:43:43;6.00;99.90
7704;DHT22;3894;49.700;10.770;2024-03-22T07:46:09;6.20;99.90
7704;DHT22;3894;49.700;10.770;2024-03-22T07:48:34;6.30;99.90
7704;DHT22;3894;49.700;10.770;2024-03-22T07:51:01;6.40;99.90
7704;DHT22;3894;49.700;10.770;2024-03-22T07:53:27;6.50;99.90
7704;DHT22;3894;49.700;10.770;2024-03-22T07:55:53;6.70;99.90
7704;DHT22;3894;49.700;10.770;2024-03-22T07:58:19;6.70;99.90
7704;DHT22;3894;49.700;10.770;2024-03-22T08:00:44;6.80;99.90
7704;DHT22;3894;49.700;10.770;2024-03-22T08:03:16;7.00;99.90
7704;DHT22;3894;49.700;10.770;2024-03-22T08:05:42;7.40;99.90
7704;DHT22;3894;49.700;10.770;2024-03-22T08:08:08;8.00;99.90
7704;DHT22;3894;49.700;10.770;2024-03-22T08:10:33;8.80;99.90
7704;DHT22;3894;49.700;10.770;2024-03-22T08:13:00;9.30;99.90
7704;DHT22;3894;49.700;10.770;2024-03-22T08:15:29;9.30;99.90
7704;DHT22;3894;49.700;10.770;2024-03-22T08:17:55;8.60;99.90
7704;DHT22;3894;49.700;10.770;2024-03-22T08:20:23;8.30;99.90
7704;DHT22;3894;49.700;10.770;2024-03-22T08:22:48;8.50;99.90
7704;DHT22;3894;49.700;10.770;2024-03-22T08:25:14;9.00;99.90
7704;DHT22;3894;49.700;10.770;2024-03-22T08:27:43;9.40;99.90
7704;DHT22;3894;49.700;10.770;2024-03-22T08:30:09;9.80;99.90
7704;DHT22;3894;49.700;10.770;2024-03-22T08:32:35;10.00;99.90
7704;DHT22;3894;49.700;10.770;2024-03-22T08:35:01;10.40;99.90
7704;DHT22;3894;49.700;10.770;2024-03-22T08:37:26;10.80;99.90
7704;DHT22;3894;49.700;10.770;2024-03-22T08:39:52;10.90;99.90
7704;DHT22;3894;49.700;10.770;2024-03-22T08:42:18;11.00;99.90
7704;DHT22;3894;49.700;10.770;2024-03-22T08:44:44;10.80;99.90
7704;DHT22;3894;49.700;10.770;2024-03-22T08:47:09;10.40;99.90
7704;DHT22;3894;49.700;10.770;2024-03-22T08:49:35;10.50;99.90
7704;DHT22;3894;49.700;10.770;2024-03-22T08:52:01;10.40;99.90
7704;DHT22;3894;49.700;10.770;2024-03-22T08:54:27;10.30;99.90
7704;DHT22;3894;49.700;10.770;2024-03-22T08:56:53;10.50;99.90
7704;DHT22;3894;49.700;10.770;2024-03-22T08:59:19;10.70;99.90
7704;DHT22;3894;49.700;10.770;2024-03-22T09:01:44;10.90;99.90
7704;DHT22;3894;49.700;10.770;2024-03-22T09:04:10;11.00;99.90
7704;DHT22;3894;49.700;10.770;2024-03-22T09:06:36;11.30;99.90
7704;DHT22;3894;49.700;10.770;2024-03-22T09:09:01;11.60;99.90
7704;DHT22;3894;49.700;10.770;2024-03-22T09:11:29;11.70;99.90
7704;DHT22;3894;49.700;10.770;2024-03-22T09:13:55;12.20;99.90
7704;DHT22;3894;49.700;10.770;2024-03-22T09:16:21;12.60;99.90
7704;DHT22;3894;49.700;10.770;2024-03-22T09:18:46;12.90;99.90
7704;DHT22;3894;49.700;10.770;2024-03-22T09:21:12;12.80;99.90
7704;DHT22;3894;49.700;10.770;2024-03-22T09:23:37;12.60;99.90
7704;DHT22;3894;49.700;10.770;2024-03-22T09:26:03;12.60;99.90
7704;DHT22;3894;49.700;10.770;2024-03-22T09:28:29;12.50;99.90
7704;DHT22;3894;49.700;10.770;2024-03-22T09:30:55;12.40;99.90
7704;DHT22;3894;49.700;10.770;2024-03-22T09:33:21;12.40;99.90
7704;DHT22;3894;49.700;10.770;2024-03-22T09:35:46;12.40;99.90
7704;DHT22;3894;49.700;10.770;2024-03-22T09:38:12;12.20;99.90
7704;DHT22;3894;49.700;10.770;2024-03-22T09:40:41;12.10;99.90
7704;DHT22;3894;49.700;10.770;2024-03-22T09:43:07;12.10;99.90
7704;DHT22;3894;49.700;10.770;2024-03-22T09:45:33;12.20;99.90
7704;DHT22;3894;49.700;10.770;2024-03-22T09:47:59;12.30;99.90
7704;DHT22;3894;49.700;10.770;2024-03-22T09:50:25;12.30;99.90
7704;DHT22;3894;49.700;10.770;2024-03-22T09:52:56;12.30;99.90
7704;DHT22;3894;49.700;10.770;2024-03-22T09:55:24;12.30;99.90
7704;DHT22;3894;49.700;10.770;2024-03-22T09:57:50;12.30;99.90
7704;DHT22;3894;49.700;10.770;2024-03-22T10:00:18;12.40;99.90
7704;DHT22;3894;49.700;10.770;2024-03-22T10:02:46;12.50;99.90
7704;DHT22;3894;49.700;10.770;2024-03-22T10:05:13;12.60;99.90
7704;DHT22;3894;49.700;10.770;2024-03-22T10:07:39;12.70;99.90
7704;DHT22;3894;49.700;10.770;2024-03-22T10:10:05;12.90;99.90
7704;DHT22;3894;49.700;10.770;2024-03-22T10:12:32;13.00;99.90
7704;DHT22;3894;49.700;10.770;2024-03-22T10:14:58;13.10;99.90
7704;DHT22;3894;49.700;10.770;2024-03-22T10:17:26;13.20;99.90
7704;DHT22;3894;49.700;10.770;2024-03-22T10:19:52;13.40;99.90
7704;DHT22;3894;49.700;10.770;2024-03-22T10:22:19;13.30;99.90
7704;DHT22;3894;49.700;10.770;2024-03-22T10:24:44;13.30;99.90
7704;DHT22;3894;49.700;10.770;2024-03-22T10:27:10;13.40;99.90
7704;DHT22;3894;49.700;10.770;2024-03-22T10:29:36;13.70;99.90
7704;DHT22;3894;49.700;10.770;2024-03-22T10:32:02;14.20;99.90
7704;DHT22;3894;49.700;10.770;2024-03-22T10:34:28;14.60;99.90
7704;DHT22;3894;49.700;10.770;2024-03-22T10:36:56;14.70;99.90
7704;DHT22;3894;49.700;10.770;2024-03-22T10:39:23;14.60;99.90
7704;DHT22;3894;49.700;10.770;2024-03-22T10:41:49;14.50;99.90
7704;DHT22;3894;49.700;10.770;2024-03-22T10:44:15;14.60;99.90
7704;DHT22;3894;49.700;10.770;2024-03-22T10:46:45;14.60;99.90
7704;DHT22;3894;49.700;10.770;2024-03-22T10:49:19;14.60;99.90
7704;DHT22;3894;49.700;10.770;2024-03-22T10:51:46;14.50;99.90
7704;DHT22;3894;49.700;10.770;2024-03-22T10:54:18;14.50;99.90
7704;DHT22;3894;49.700;10.770;2024-03-22T10:56:45;14.50;99.90
7704;DHT22;3894;49.700;10.770;2024-03-22T10:59:22;14.50;99.90
7704;DHT22;3894;49.700;10.770;2024-03-22T11:01:49;14.80;99.90
7704;DHT22;3894;49.700;10.770;2024-03-22T11:04:17;15.20;99.90
7704;DHT22;3894;49.700;10.770;2024-03-22T11:06:47;15.40;99.90
7704;DHT22;3894;49.700;10.770;2024-03-22T11:09:19;15.40;99.90
7704;DHT22;3894;49.700;10.770;2024-03-22T11:11:46;15.50;99.90
7704;DHT22;3894;49.700;10.770;2024-03-22T11:14:12;15.80;99.90
7704;DHT22;3894;49.700;10.770;2024-03-22T11:16:37;15.60;99.90
7704;DHT22;3894;49.700;10.770;2024-03-22T11:19:04;15.40;99.90
7704;DHT22;3894;49.700;10.770;2024-03-22T11:21:33;15.30;99.90
7704;DHT22;3894;49.700;10.770;2024-03-22T11:24:01;15.30;99.90
7704;DHT22;3894;49.700;10.770;2024-03-22T11:26:26;15.60;99.90
7704;DHT22;3894;49.700;10.770;2024-03-22T11:28:52;15.70;99.90
7704;DHT22;3894;49.700;10.770;2024-03-22T11:31:18;15.80;99.90
7704;DHT22;3894;49.700;10.770;2024-03-22T11:33:45;15.90;99.90
7704;DHT22;3894;49.700;10.770;2024-03-22T11:36:11;16.00;99.90
7704;DHT22;3894;49.700;10.770;2024-03-22T11:38:36;16.10;99.90
7704;DHT22;3894;49.700;10.770;2024-03-22T11:41:02;16.10;99.90
7704;DHT22;3894;49.700;10.770;2024-03-22T11:43:29;15.90;99.90
7704;DHT22;3894;49.700;10.770;2024-03-22T11:45:55;15.80;99.90
7704;DHT22;3894;49.700;10.770;2024-03-22T11:48:22;15.80;99.90
7704;DHT22;3894;49.700;10.770;2024-03-22T11:50:47;15.90;99.90
7704;DHT22;3894;49.700;10.770;2024-03-22T11:53:16;16.00;99.90
7704;DHT22;3894;49.700;10.770;2024-03-22T11:55:42;16.10;99.90
7704;DHT22;3894;49.700;10.770;2024-03-22T11:58:12;16.10;99.90
7704;DHT22;3894;49.700;10.770;2024-03-22T12:00:38;16.10;99.90
7704;DHT22;3894;49.700;10.770;2024-03-22T12:03:04;16.10;99.90
7704;DHT22;3894;49.700;10.770;2024-03-22T12:05:31;16.20;99.90
7704;DHT22;3894;49.700;10.770;2024-03-22T12:07:58;16.30;99.90
7704;DHT22;3894;49.700;10.770;2024-03-22T12:10:23;16.30;99.90
7704;DHT22;3894;49.700;10.770;2024-03-22T12:12:49;16.30;99.90
7704;DHT22;3894;49.700;10.770;2024-03-22T12:15:14;16.20;99.90
7704;DHT22;3894;49.700;10.770;2024-03-22T12:17:40;16.20;99.90
7704;DHT22;3894;49.700;10.770;2024-03-22T12:20:09;16.10;99.90
7704;DHT22;3894;49.700;10.770;2024-03-22T12:22:37;16.00;99.90
7704;DHT22;3894;49.700;10.770;2024-03-22T12:25:03;15.90;99.90
7704;DHT22;3894;49.700;10.770;2024-03-22T12:27:30;15.90;99.90
7704;DHT22;3894;49.700;10.770;2024-03-22T12:29:55;15.90;99.90
7704;DHT22;3894;49.700;10.770;2024-03-22T12:32:21;16.00;99.90
7704;DHT22;3894;49.700;10.770;2024-03-22T12:34:46;16.10;99.90
7704;DHT22;3894;49.700;10.770;2024-03-22T12:37:13;16.20;99.90
7704;DHT22;3894;49.700;10.770;2024-03-22T12:39:39;16.30;99.90
7704;DHT22;3894;49.700;10.770;2024-03-22T12:42:05;16.20;99.90
7704;DHT22;3894;49.700;10.770;2024-03-22T12:44:31;16.10;99.90
7704;DHT22;3894;49.700;10.770;2024-03-22T12:46:57;16.00;99.90
7704;DHT22;3894;49.700;10.770;2024-03-22T12:49:23;16.00;99.90
7704;DHT22;3894;49.700;10.770;2024-03-22T12:51:48;16.00;99.90
7704;DHT22;3894;49.700;10.770;2024-03-22T12:54:14;16.00;99.90
7704;DHT22;3894;49.700;10.770;2024-03-22T12:56:40;15.90;99.90
7704;DHT22;3894;49.700;10.770;2024-03-22T12:59:06;15.90;99.90
7704;DHT22;3894;49.700;10.770;2024-03-22T13:01:33;16.00;99.90
7704;DHT22;3894;49.700;10.770;2024-03-22T13:03:58;16.00;99.90
7704;DHT22;3894;49.700;10.770;2024-03-22T13:06:24;16.00;99.90
7704;DHT22;3894;49.700;10.770;2024-03-22T13:08:50;16.00;99.90
7704;DHT22;3894;49.700;10.770;2024-03-22T13:11:16;16.10;99.90
7704;DHT22;3894;49.700;10.770;2024-03-22T13:13:42;16.10;99.90
7704;DHT22;3894;49.700;10.770;2024-03-22T13:16:09;16.00;99.90
7704;DHT22;3894;49.700;10.770;2024-03-22T13:18:36;16.10;99.90
7704;DHT22;3894;49.700;10.770;2024-03-22T13:21:02;16.10;99.90
7704;DHT22;3894;49.700;10.770;2024-03-22T13:23:30;16.10;99.90
7704;DHT22;3894;49.700;10.770;2024-03-22T13:25:56;16.10;99.90
7704;DHT22;3894;49.700;10.770;2024-03-22T13:28:24;16.10;99.90
7704;DHT22;3894;49.700;10.770;2024-03-22T13:30:59;16.10;99.90
7704;DHT22;3894;49.700;10.770;2024-03-22T13:33:25;16.10;99.90
7704;DHT22;3894;49.700;10.770;2024-03-22T13:35:50;16.10;99.90
7704;DHT22;3894;49.700;10.770;2024-03-22T13:38:16;16.20;99.90
7704;DHT22;3894;49.700;10.770;2024-03-22T13:40:41;16.30;99.90
7704;DHT22;3894;49.700;10.770;2024-03-22T13:43:09;16.30;99.90
7704;DHT22;3894;49.700;10.770;2024-03-22T13:45:44;16.30;99.90
7704;DHT22;3894;49.700;10.770;2024-03-22T13:48:11;16.30;99.90
7704;DHT22;3894;49.700;10.770;2024-03-22T13:50:37;16.20;99.90
7704;DHT22;3894;49.700;10.770;2024-03-22T13:53:03;16.20;99.90
7704;DHT22;3894;49.700;10.770;2024-03-22T13:55:29;16.10;99.90
7704;DHT22;3894;49.700;10.770;2024-03-22T13:57:54;16.10;99.90
7704;DHT22;3894;49.700;10.770;2024-03-22T14:00:20;16.10;99.90
7704;DHT22;3894;49.700;10.770;2024-03-22T14:02:45;16.00;99.90
7704;DHT22;3894;49.700;10.770;2024-03-22T14:05:17;16.00;99.90
7704;DHT22;3894;49.700;10.770;2024-03-22T14:07:43;16.00;99.90
7704;DHT22;3894;49.700;10.770;2024-03-22T14:10:09;16.10;99.90
7704;DHT22;3894;49.700;10.770;2024-03-22T14:12:35;16.10;99.90
7704;DHT22;3894;49.700;10.770;2024-03-22T14:15:00;16.10;99.90
7704;DHT22;3894;49.700;10.770;2024-03-22T14:17:26;16.00;99.90
7704;DHT22;3894;49.700;10.770;2024-03-22T14:19:51;16.00;99.90
7704;DHT22;3894;49.700;10.770;2024-03-22T14:22:18;16.00;99.90
7704;DHT22;3894;49.700;10.770;2024-03-22T14:24:43;16.00;99.90
7704;DHT22;3894;49.700;10.770;2024-03-22T14:27:09;16.00;99.90
7704;DHT22;3894;49.700;10.770;2024-03-22T14:29:35;16.00;99.90
7704;DHT22;3894;49.700;10.770;2024-03-22T14:32:00;16.00;99.90
7704;DHT22;3894;49.700;10.770;2024-03-22T14:34:26;16.10;99.90
7704;DHT22;3894;49.700;10.770;2024-03-22T14:36:51;16.00;99.90
7704;DHT22;3894;49.700;10.770;2024-03-22T14:39:17;16.00;99.90
7704;DHT22;3894;49.700;10.770;2024-03-22T14:41:42;16.00;99.90
7704;DHT22;3894;49.700;10.770;2024-03-22T14:44:08;16.00;99.90
7704;DHT22;3894;49.700;10.770;2024-03-22T14:46:34;15.90;99.90
7704;DHT22;3894;49.700;10.770;2024-03-22T14:48:59;15.90;99.90
7704;DHT22;3894;49.700;10.770;2024-03-22T14:51:25;15.90;99.90
7704;DHT22;3894;49.700;10.770;2024-03-22T14:53:52;15.80;99.90
7704;DHT22;3894;49.700;10.770;2024-03-22T14:56:17;15.80;99.90
7704;DHT22;3894;49.700;10.770;2024-03-22T14:58:43;15.70;99.90
7704;DHT22;3894;49.700;10.770;2024-03-22T15:01:09;15.70;99.90
7704;DHT22;3894;49.700;10.770;2024-03-22T15:03:35;15.60;99.90
7704;DHT22;3894;49.700;10.770;2024-03-22T15:06:01;15.60;99.90
7704;DHT22;3894;49.700;10.770;2024-03-22T15:08:27;15.60;99.90
7704;DHT22;3894;49.700;10.770;2024-03-22T15:10:53;15.60;99.90
7704;DHT22;3894;49.700;10.770;2024-03-22T15:13:19;15.60;99.90
7704;DHT22;3894;49.700;10.770;2024-03-22T15:15:52;15.60;99.90
7704;DHT22;3894;49.700;10.770;2024-03-22T15:18:18;15.60;99.90
7704;DHT22;3894;49.700;10.770;2024-03-22T15:20:46;15.60;99.90
7704;DHT22;3894;49.700;10.770;2024-03-22T15:23:11;15.60;99.90
7704;DHT22;3894;49.700;10.770;2024-03-22T15:25:37;15.60;99.90
7704;DHT22;3894;49.700;10.770;2024-03-22T15:28:02;15.60;99.90
7704;DHT22;3894;49.700;10.770;2024-03-22T15:30:29;15.50;99.90
7704;DHT22;3894;49.700;10.770;2024-03-22T15:32:55;15.50;99.90
7704;DHT22;3894;49.700;10.770;2024-03-22T15:35:21;15.50;99.90
7704;DHT22;3894;49.700;10.770;2024-03-22T15:37:46;15.50;99.90
7704;DHT22;3894;49.700;10.770;2024-03-22T15:40:12;15.40;99.90
7704;DHT22;3894;49.700;10.770;2024-03-22T15:42:37;15.40;99.90
7704;DHT22;3894;49.700;10.770;2024-03-22T15:45:03;15.40;99.90
7704;DHT22;3894;49.700;10.770;2024-03-22T15:47:31;15.40;99.90